Hagood, South Carolina
Current Conditions -  °F | °C
As of 3:58 AM on Friday 19 Dec 2014 (Local Time) from KSSC Reporting Station
Clear Clear  
Wind Chill: 37°   Ceiling: Unl
Heat Index: 37°   Visibility: 10mi
Dew Point: 34°   Wind: 1mph
Humidity: 91%   Direction: 50°NE
Pressure: 30.07"   Gusts: NA
Location:  34.1106°N, 80.4967°W
Report Text: KSSC 190858Z AUTO 05001KT 10SM CLR 03/01 A3007 RMK AO2 SLP185 T00260012 55004 $
Loading
Personal Weather Stations






























Interactive Weather Map New forecast layout! Learn more

10-Day Weather Forecast

Advertisements
Track Severe Weather on mobile